HP: University of Magic Arts

Информация о пользователе

Привет, Гость! Войдите или зарегистрируйтесь.


Вы здесь » HP: University of Magic Arts » Законченные эпизоды


Законченные эпизоды

Тем 1 страница 30 из 51

Тема Ответов Просмотров Последнее сообщение
1 Закрыта Where the hell is she?  Albert Flint
13 319 2019-04-17 01:46:34  Ada Flint
26 414 2019-04-12 23:58:12  Victoire Weasley
15 182 2019-03-29 14:01:22  Christopher Burke
4 Закрыта Когда стены рушатся  Raynar Lafe
6 135 2019-03-26 01:06:34  Raynar Lafe
5 Закрыта Как в "старые добрые"  Ada Flint
7 192 2019-03-24 15:12:03  Albert Flint
6 Закрыта Eager to study  Nickolas Shafiq
10 294 2019-03-19 17:05:05  Nickolas Shafiq
47 833 2019-03-15 13:11:51  Rosaline Travers [x]
12 164 2019-03-13 13:13:45  James Potter
9 Gentlemen's club  Theobald Travers
34 392 2019-03-10 08:15:29  Theobald Travers
44 648 2019-03-09 17:10:12  Rosaline Travers [x]
17 269 2019-03-08 15:46:01  Neamhain Travers
12 Закрыта Chaque chose en son temps  Albert Flint
15 406 2019-02-22 23:06:43  Vivien Lafor
16 271 2019-02-20 13:02:48  Theobald Travers
14 Закрыта It's where my demons hide  Christopher Burke
22 349 2019-02-18 21:54:42  Christopher Burke
15 Закрыта хьюстон, у нас проблемы  Varvara Krum
6 163 2019-02-14 16:39:36  Varvara Krum
16 Закрыта Я хочу увидеть море!  James Potter
13 238 2019-02-12 22:15:46  Vivien Lafor
17 Закрыта Скрестите палочки  Albert Flint
19 260 2019-02-08 18:30:57  Scorpius Malfoy
18 Закрыта like broken instruments  Christopher Burke
12 199 2019-01-22 01:36:41  Christopher Burke
12 168 2019-01-21 00:49:20  Ottavio Greengrass
20 Закрыта Not that place, not that time  Horejs Chang
13 170 2019-01-16 19:54:35  Scorpius Malfoy
21 Закрыта the warriors that built this town  Christopher Burke
12 180 2019-01-15 21:16:35  Christopher Burke
22 Закрыта Baby, you go hard in the paint  Christopher Burke
8 116 2019-01-15 01:40:32  Christopher Burke
23 Закрыта I will bring the pain you need  Christopher Burke
7 85 2019-01-14 08:30:28  Horejs Chang
24 Закрыта Прости. Прощай. Привет.  Teddy Lupin
3 195 2018-12-25 00:23:49  Albert Flint
25 Закрыта Небольшой конфуз  Vivien Lafor
12 242 2018-12-12 20:42:04  Vivien Lafor
24 302 2018-12-07 21:49:51  Ethan Travers
27 Закрыта Фэшэн из май профэшн  Albert Flint
8 318 2018-12-06 18:55:52  Albert Flint
28 Закрыта All I Want for Christmas Is You  Farran Moran
10 217 2018-12-02 01:37:29  Rosaline Travers [x]
29 Закрыта Разбор полета  Teddy Lupin
9 171 2018-12-02 01:09:25  Teddy Lupin
30 Закрыта If the moment ever comes  Blaise Zabini
27 373 2018-11-16 03:20:34  Blaise Zabini

Вы здесь » HP: University of Magic Arts » Законченные эпизоды